Argonia, Kansas
Current Conditions -  °F | °C
As of 9:53 PM on Thursday 18 Dec 2014 (Local Time) from KICT Reporting Station
Overcast Overcast  
Wind Chill: 32°   Ceiling: 600
Heat Index: 32°   Visibility: 7mi
Dew Point: 28°   Wind: 3mph
Humidity: 85%   Direction: 60°ENE
Pressure: 30.24"   Gusts: NA
Location:  37.27°N, 97.77°W
Report Text: KICT 190353Z 06003KT 7SM OVC006 00/M02 A3024 RMK AO2 SLP253 T00001022 $
Loading
Personal Weather Stations






























Interactive Weather Map New forecast layout! Learn more

10-Day Weather Forecast

Advertisements
Track Severe Weather on mobile